Elko Regional Airport Elko US
ICAO: KEKO
IATA: EKO
Category: Medium
Scheduled Services: Yes

Elevation: 5140 ft
TransAlt. 18000 ft.

Airport Communications:
ASOS:119.275
SALT LAKE CNTR:132.25
CTAF:123
UNICOM:123

KEKO Zoom In..

If you have problems with the map follow the link
https://www.worldairports.se/pages/airport.php?
ICAO=KEKO

Runways:

(A) RW 05 length 7214 ft width 150 ft
---- / hdg 53

(B) RW 12 length 2871 ft width 60 ft
---- / hdg 118

(C) RW 23 length 7214 ft width 150 ft
---- / hdg 233

(D) RW 30 length 2871 ft width 60 ft
---- / hdg 298

Location; KEKO
Day. 27 / Time. 04.56 Zulu
* Altimeter: 30.13
* Temperature: 01° c. 33.8°f.
* Wind from: 240° Speed 05 kn.
Dewpoint: -01° c.
Visibility: 10 Statute Miles.
Clouds: Few 1800 ft.

KEKO 270456Z AUTO 24005KT 10SM FEW018 01/M01 A3013 RMK AO2 SLP217 T00111006


Wind From 240°
Speed 05 kn.

 
 
jpsmedia worldairports.se 2020   terms of use